createdAt,value
2023-04-03T00:00:44.509Z,99.90
2023-04-03T00:03:12.694Z,99.90
2023-04-03T00:05:40.547Z,99.90
2023-04-03T00:08:09.059Z,99.90
2023-04-03T00:10:37.309Z,99.90
2023-04-03T00:13:06.015Z,99.90
2023-04-03T00:15:33.921Z,99.90
2023-04-03T00:18:01.253Z,99.90
2023-04-03T00:20:28.913Z,99.90
2023-04-03T00:22:56.224Z,99.90
2023-04-03T00:25:23.853Z,99.90
2023-04-03T00:27:51.037Z,99.90
2023-04-03T00:30:19.919Z,99.90
2023-04-03T00:32:53.789Z,99.90
2023-04-03T00:35:22.377Z,99.90
2023-04-03T00:37:51.853Z,99.90
2023-04-03T00:40:19.549Z,99.90
2023-04-03T00:42:49.412Z,99.90
2023-04-03T00:45:19.439Z,99.90
2023-04-03T00:47:47.048Z,99.90
2023-04-03T00:50:14.109Z,99.90
2023-04-03T00:52:41.346Z,99.90
2023-04-03T00:55:10.954Z,99.90
2023-04-03T00:57:39.621Z,99.90
2023-04-03T01:00:13.826Z,99.90
2023-04-03T01:02:42.054Z,99.90
2023-04-03T01:05:09.856Z,99.90
2023-04-03T01:07:38.226Z,99.90
2023-04-03T01:10:09.369Z,99.90
2023-04-03T01:12:46.660Z,99.90
2023-04-03T01:15:26.620Z,99.90
2023-04-03T01:17:58.973Z,99.90
2023-04-03T01:20:36.909Z,99.90
2023-04-03T01:23:13.378Z,99.90
2023-04-03T01:25:45.567Z,99.90
2023-04-03T01:28:18.381Z,99.90
2023-04-03T01:30:55.208Z,99.90
2023-04-03T01:33:22.649Z,99.90
2023-04-03T01:35:49.907Z,99.90
2023-04-03T01:38:17.100Z,99.90
2023-04-03T01:40:44.359Z,99.90
2023-04-03T01:43:11.783Z,99.90
2023-04-03T01:45:38.936Z,99.90
2023-04-03T01:48:06.195Z,99.90
2023-04-03T01:50:33.699Z,99.90
2023-04-03T01:53:01.028Z,99.90
2023-04-03T01:55:28.629Z,99.90
2023-04-03T01:57:56.074Z,99.90
2023-04-03T02:00:23.519Z,99.90
2023-04-03T02:02:51.450Z,99.90
2023-04-03T02:05:18.635Z,99.90
2023-04-03T02:07:46.516Z,99.90
2023-04-03T02:10:13.709Z,99.90
2023-04-03T02:12:40.780Z,99.90
2023-04-03T02:15:08.639Z,99.90
2023-04-03T02:17:36.441Z,99.90
2023-04-03T02:20:05.376Z,99.90
2023-04-03T02:22:32.888Z,99.90
2023-04-03T02:25:00.216Z,99.90
2023-04-03T02:27:27.917Z,99.90
2023-04-03T02:29:55.288Z,99.90
2023-04-03T02:32:22.752Z,99.90
2023-04-03T02:34:50.019Z,99.90
2023-04-03T02:37:17.386Z,99.90
2023-04-03T02:39:44.700Z,99.90
2023-04-03T02:42:11.902Z,99.90
2023-04-03T02:44:39.988Z,99.90
2023-04-03T02:47:07.112Z,99.90
2023-04-03T02:49:34.780Z,99.90
2023-04-03T02:52:02.362Z,99.90
2023-04-03T02:54:31.589Z,99.90
2023-04-03T02:56:59.953Z,99.90
2023-04-03T02:59:27.253Z,99.90
2023-04-03T03:01:54.547Z,99.90
2023-04-03T03:04:21.965Z,99.90
2023-04-03T03:06:49.630Z,99.90
2023-04-03T03:09:16.813Z,99.90
2023-04-03T03:11:43.834Z,99.90
2023-04-03T03:14:11.076Z,99.90
2023-04-03T03:16:38.320Z,99.90
2023-04-03T03:19:05.856Z,99.90
2023-04-03T03:21:32.913Z,99.90
2023-04-03T03:24:00.159Z,99.90
2023-04-03T03:26:28.155Z,99.90
2023-04-03T03:28:55.436Z,99.90
2023-04-03T03:31:22.494Z,99.90
2023-04-03T03:33:49.897Z,99.90
2023-04-03T03:36:17.186Z,99.90
2023-04-03T03:38:44.398Z,99.90
2023-04-03T03:41:11.481Z,99.90
2023-04-03T03:43:38.772Z,99.90
2023-04-03T03:46:06.032Z,99.90
2023-04-03T03:48:33.229Z,99.90
2023-04-03T03:51:00.422Z,99.90
2023-04-03T03:53:27.530Z,99.90
2023-04-03T03:55:55.083Z,99.90
2023-04-03T03:58:22.182Z,99.90
2023-04-03T04:00:49.710Z,99.90
2023-04-03T04:03:17.066Z,99.90
2023-04-03T04:05:44.763Z,99.90
2023-04-03T04:08:11.912Z,99.90
2023-04-03T04:10:39.761Z,99.90
2023-04-03T04:13:07.009Z,99.90
2023-04-03T04:15:34.204Z,99.90
2023-04-03T04:18:01.336Z,99.90
2023-04-03T04:20:28.872Z,99.90
2023-04-03T04:22:56.397Z,99.90
2023-04-03T04:25:23.602Z,99.90
2023-04-03T04:27:50.692Z,99.90
2023-04-03T04:30:17.763Z,99.90
2023-04-03T04:32:45.891Z,99.90
2023-04-03T04:35:16.174Z,99.90
2023-04-03T04:37:43.967Z,99.90
2023-04-03T04:40:11.458Z,99.90
2023-04-03T04:42:39.423Z,99.90
2023-04-03T04:45:07.222Z,99.90
2023-04-03T04:47:34.407Z,99.90
2023-04-03T04:50:01.526Z,99.90
2023-04-03T04:52:29.102Z,99.90
2023-04-03T04:54:56.866Z,99.90
2023-04-03T04:57:24.873Z,99.90
2023-04-03T04:59:52.836Z,99.90
2023-04-03T05:02:20.634Z,99.90
2023-04-03T05:04:48.362Z,99.90
2023-04-03T05:07:15.953Z,99.90
2023-04-03T05:09:43.661Z,99.90
2023-04-03T05:12:11.442Z,99.90
2023-04-03T05:14:39.616Z,99.90
2023-04-03T05:17:07.006Z,99.90
2023-04-03T05:19:34.303Z,99.90
2023-04-03T05:22:01.752Z,99.90
2023-04-03T05:24:28.990Z,99.90
2023-04-03T05:26:56.031Z,99.90
2023-04-03T05:29:23.396Z,99.90
2023-04-03T05:31:53.821Z,99.90
2023-04-03T05:34:21.084Z,99.90
2023-04-03T05:36:48.571Z,99.90
2023-04-03T05:39:16.062Z,99.90
2023-04-03T05:41:43.194Z,99.90
2023-04-03T05:44:10.454Z,99.90
2023-04-03T05:46:37.661Z,99.90
2023-04-03T05:49:04.866Z,99.90
2023-04-03T05:51:36.138Z,99.90
2023-04-03T05:54:28.416Z,99.90
2023-04-03T05:56:56.814Z,99.90
2023-04-03T05:59:24.064Z,99.90
2023-04-03T06:01:53.206Z,99.90
2023-04-03T06:04:22.198Z,99.90
2023-04-03T06:06:54.290Z,99.90
2023-04-03T06:09:25.042Z,99.90
2023-04-03T06:11:53.175Z,99.90
2023-04-03T06:14:20.730Z,99.90
2023-04-03T06:16:48.239Z,99.90
2023-04-03T06:19:15.570Z,99.90
2023-04-03T06:21:42.754Z,99.90
2023-04-03T06:24:10.828Z,99.90
2023-04-03T06:26:38.281Z,99.90
2023-04-03T06:29:05.634Z,99.90
2023-04-03T06:31:32.998Z,99.90
2023-04-03T06:34:00.538Z,99.90
2023-04-03T06:36:27.763Z,99.90
2023-04-03T06:38:54.996Z,99.90
2023-04-03T06:41:22.314Z,99.90
2023-04-03T06:43:49.456Z,99.90
2023-04-03T06:46:22.357Z,99.90
2023-04-03T06:48:50.130Z,99.90
2023-04-03T06:51:28.621Z,99.90
2023-04-03T06:53:57.553Z,99.90
2023-04-03T06:56:25.389Z,99.90
2023-04-03T06:58:52.800Z,99.90
2023-04-03T07:01:20.442Z,99.90
2023-04-03T07:03:49.696Z,99.90
2023-04-03T07:06:19.198Z,99.90
2023-04-03T07:08:47.503Z,99.90
2023-04-03T07:11:14.869Z,99.90
2023-04-03T07:13:42.128Z,99.90
2023-04-03T07:16:10.107Z,99.90
2023-04-03T07:18:37.583Z,99.90
2023-04-03T07:21:05.550Z,99.90
2023-04-03T07:23:32.956Z,99.90
2023-04-03T07:26:00.406Z,99.90
2023-04-03T07:28:27.633Z,99.90
2023-04-03T07:31:00.743Z,99.90
2023-04-03T07:33:27.877Z,99.90
2023-04-03T07:35:55.340Z,99.90
2023-04-03T07:38:22.695Z,99.90
2023-04-03T07:40:51.678Z,99.90
2023-04-03T07:43:19.298Z,99.90
2023-04-03T07:45:46.461Z,99.90
2023-04-03T07:48:14.281Z,99.90
2023-04-03T07:50:42.227Z,99.90
2023-04-03T07:53:09.483Z,99.90
2023-04-03T07:55:43.685Z,99.90
2023-04-03T07:58:12.539Z,99.90
2023-04-03T08:00:40.290Z,99.90
2023-04-03T08:03:10.425Z,99.90
2023-04-03T08:05:40.881Z,99.90
2023-04-03T08:08:09.464Z,99.90
2023-04-03T08:10:36.852Z,99.90
2023-04-03T08:13:04.124Z,99.90
2023-04-03T08:15:31.974Z,99.90
2023-04-03T08:17:59.879Z,99.90
2023-04-03T08:20:27.840Z,99.90
2023-04-03T08:22:55.481Z,99.90
2023-04-03T08:25:23.322Z,99.90
2023-04-03T08:27:50.567Z,99.90
2023-04-03T08:30:17.771Z,99.90
2023-04-03T08:32:45.563Z,99.90
2023-04-03T08:35:12.956Z,99.90
2023-04-03T08:37:41.404Z,99.90
2023-04-03T08:40:13.984Z,99.90
2023-04-03T08:43:31.416Z,99.90
2023-04-03T08:46:02.181Z,99.90
2023-04-03T08:48:34.292Z,99.90
2023-04-03T08:51:10.891Z,99.90
2023-04-03T08:53:44.154Z,99.90
2023-04-03T08:56:13.986Z,99.90
2023-04-03T08:58:57.425Z,99.90
2023-04-03T09:01:39.983Z,99.90
2023-04-03T09:04:15.972Z,99.90
2023-04-03T09:06:50.974Z,99.90
2023-04-03T09:09:43.573Z,99.90
2023-04-03T09:12:28.083Z,99.90
2023-04-03T09:15:01.853Z,99.90
2023-04-03T09:17:44.316Z,99.90
2023-04-03T09:20:47.980Z,99.90
2023-04-03T09:23:39.964Z,99.90
2023-04-03T09:26:12.606Z,99.90
2023-04-03T09:28:50.032Z,99.90
2023-04-03T09:31:25.948Z,99.90
2023-04-03T09:34:03.841Z,99.90
2023-04-03T09:36:49.069Z,99.90
2023-04-03T09:39:22.037Z,99.90
2023-04-03T09:42:03.615Z,99.90
2023-04-03T09:44:39.145Z,99.90
2023-04-03T09:47:27.499Z,99.90
2023-04-03T09:50:15.949Z,99.90
2023-04-03T09:52:45.018Z,99.90
2023-04-03T09:55:30.631Z,99.90
2023-04-03T09:58:06.180Z,99.90
2023-04-03T10:00:37.191Z,99.90
2023-04-03T10:03:06.152Z,99.90
2023-04-03T10:05:44.189Z,99.90
2023-04-03T10:08:14.181Z,99.90
2023-04-03T10:10:48.079Z,99.90
2023-04-03T10:13:22.409Z,99.90
2023-04-03T10:16:00.154Z,99.90
2023-04-03T10:18:57.007Z,99.90
2023-04-03T10:21:47.000Z,99.90
2023-04-03T10:24:37.699Z,99.90
2023-04-03T10:27:35.414Z,99.90
2023-04-03T10:30:22.969Z,99.90
2023-04-03T10:33:06.303Z,99.90
2023-04-03T10:36:10.347Z,99.90
2023-04-03T10:39:03.447Z,99.90
2023-04-03T10:41:47.391Z,99.90
2023-04-03T10:44:58.090Z,99.90
2023-04-03T10:47:52.840Z,99.80
2023-04-03T10:50:47.577Z,99.90
2023-04-03T10:53:18.217Z,99.90
2023-04-03T10:56:03.931Z,99.90
2023-04-03T10:58:39.952Z,99.20
2023-04-03T11:01:18.363Z,99.00
2023-04-03T11:03:50.430Z,99.60
2023-04-03T11:06:20.769Z,99.80
2023-04-03T11:09:09.962Z,98.80
2023-04-03T11:11:40.915Z,98.90
2023-04-03T11:14:25.789Z,99.00
2023-04-03T11:17:01.152Z,98.00
2023-04-03T11:19:37.617Z,98.80
2023-04-03T11:22:24.389Z,98.30
2023-04-03T11:25:11.458Z,99.40
2023-04-03T11:27:54.321Z,98.00
2023-04-03T11:30:23.417Z,98.20
2023-04-03T11:33:14.987Z,97.50
2023-04-03T11:35:48.417Z,97.90
2023-04-03T11:38:37.382Z,96.90
2023-04-03T11:41:07.764Z,98.20
2023-04-03T11:43:40.895Z,98.10
2023-04-03T11:46:09.717Z,97.20
2023-04-03T11:48:36.926Z,98.10
2023-04-03T11:51:21.597Z,98.80
2023-04-03T11:53:49.580Z,97.40
2023-04-03T11:56:28.612Z,97.30
2023-04-03T11:59:14.485Z,97.50
2023-04-03T12:01:55.138Z,97.20
2023-04-03T12:04:25.638Z,99.20
2023-04-03T12:07:14.799Z,98.00
2023-04-03T12:09:42.052Z,98.40
2023-04-03T12:12:42.028Z,98.20
2023-04-03T12:15:42.657Z,97.00
2023-04-03T12:18:42.565Z,98.10
2023-04-03T12:21:11.623Z,97.60
2023-04-03T12:24:01.570Z,97.80
2023-04-03T12:26:42.094Z,96.90
2023-04-03T12:29:29.737Z,97.20
2023-04-03T12:32:34.367Z,98.10
2023-04-03T12:35:37.651Z,97.50
2023-04-03T12:38:42.625Z,97.30
2023-04-03T12:41:31.866Z,97.80
2023-04-03T12:44:11.339Z,97.20
2023-04-03T12:46:47.269Z,96.20
2023-04-03T12:49:31.221Z,96.80
2023-04-03T12:51:59.785Z,97.10
2023-04-03T12:54:30.622Z,97.40
2023-04-03T12:57:17.809Z,97.60
2023-04-03T12:59:47.568Z,97.20
2023-04-03T13:02:34.808Z,98.20
2023-04-03T13:05:08.875Z,96.50
2023-04-03T13:07:39.838Z,96.90
2023-04-03T13:10:10.006Z,96.40
2023-04-03T13:12:48.668Z,95.90
2023-04-03T13:15:20.884Z,96.20
2023-04-03T13:17:51.137Z,95.80
2023-04-03T13:20:31.431Z,96.80
2023-04-03T13:23:06.312Z,96.70
2023-04-03T13:25:36.134Z,96.90
2023-04-03T13:28:13.707Z,96.70
2023-04-03T13:30:42.496Z,96.20
2023-04-03T13:33:25.397Z,96.70
2023-04-03T13:36:05.401Z,96.50
2023-04-03T13:38:37.277Z,96.30
2023-04-03T13:41:24.027Z,97.10
2023-04-03T13:43:53.621Z,96.50
2023-04-03T13:46:28.025Z,96.40
2023-04-03T13:48:58.264Z,96.80
2023-04-03T13:51:30.942Z,95.70
2023-04-03T13:54:13.619Z,95.90
2023-04-03T13:56:43.085Z,96.50
2023-04-03T13:59:13.021Z,95.80
2023-04-03T14:01:49.470Z,95.00
2023-04-03T14:04:31.027Z,95.30
2023-04-03T14:06:58.412Z,95.50
2023-04-03T14:09:27.817Z,96.20
2023-04-03T14:12:01.432Z,95.50
2023-04-03T14:14:33.063Z,96.10
2023-04-03T14:17:03.347Z,95.10
2023-04-03T14:19:36.476Z,95.10
2023-04-03T14:22:29.311Z,95.30
2023-04-03T14:24:57.154Z,94.30
2023-04-03T14:27:28.015Z,95.50
2023-04-03T14:29:57.106Z,95.10
2023-04-03T14:32:25.797Z,95.40
2023-04-03T14:34:54.175Z,95.80
2023-04-03T14:37:24.713Z,95.00
2023-04-03T14:39:54.030Z,95.20
2023-04-03T14:42:25.544Z,95.60
2023-04-03T14:44:53.845Z,95.10
2023-04-03T14:47:31.055Z,95.10
2023-04-03T14:50:01.267Z,95.10
2023-04-03T14:52:35.380Z,95.00
2023-04-03T14:55:04.410Z,95.40
2023-04-03T14:57:31.886Z,95.90
2023-04-03T14:59:59.317Z,95.10
2023-04-03T15:02:31.027Z,95.20
2023-04-03T15:04:59.503Z,95.10
2023-04-03T15:07:29.561Z,95.10
2023-04-03T15:09:59.769Z,94.40
2023-04-03T15:12:27.265Z,94.80
2023-04-03T15:15:01.062Z,95.40
2023-04-03T15:17:30.881Z,94.50
2023-04-03T15:19:59.291Z,95.90
2023-04-03T15:22:26.486Z,94.60
2023-04-03T15:24:54.396Z,94.80
2023-04-03T15:27:21.513Z,94.10
2023-04-03T15:29:48.591Z,93.80
2023-04-03T15:32:15.724Z,95.60
2023-04-03T15:34:42.820Z,93.90
2023-04-03T15:37:09.942Z,94.30
2023-04-03T15:39:37.121Z,94.30
2023-04-03T15:42:07.302Z,94.60
2023-04-03T15:44:35.678Z,95.30
2023-04-03T15:47:03.468Z,93.70
2023-04-03T15:49:31.878Z,94.30
2023-04-03T15:51:58.902Z,94.40
2023-04-03T15:54:26.425Z,94.60
2023-04-03T15:56:54.571Z,94.30
2023-04-03T15:59:22.746Z,93.90
2023-04-03T16:01:51.523Z,95.10
2023-04-03T16:04:20.677Z,94.90
2023-04-03T16:06:47.997Z,95.20
2023-04-03T16:09:15.312Z,95.60
2023-04-03T16:11:42.533Z,94.30
2023-04-03T16:14:09.724Z,94.80
2023-04-03T16:16:37.865Z,95.20
2023-04-03T16:19:05.919Z,95.80
2023-04-03T16:21:33.939Z,94.60
2023-04-03T16:24:01.956Z,94.00
2023-04-03T16:26:29.226Z,93.80
2023-04-03T16:28:56.377Z,95.10
2023-04-03T16:31:25.245Z,94.00
2023-04-03T16:33:52.869Z,94.30
2023-04-03T16:36:19.905Z,95.10
2023-04-03T16:38:47.074Z,94.00
2023-04-03T16:41:14.287Z,93.70
2023-04-03T16:46:08.765Z,94.30
2023-04-03T16:48:36.205Z,95.00
2023-04-03T16:51:03.589Z,95.00
2023-04-03T16:53:30.632Z,95.50
2023-04-03T16:56:00.062Z,94.40
2023-04-03T16:58:27.316Z,95.10
2023-04-03T17:00:54.828Z,94.40
2023-04-03T17:03:24.085Z,94.10
2023-04-03T17:05:51.509Z,93.70
2023-04-03T17:08:19.179Z,94.00
2023-04-03T17:10:46.327Z,94.00
2023-04-03T17:13:13.553Z,94.00
2023-04-03T17:15:40.938Z,94.60
2023-04-03T17:18:08.681Z,94.40
2023-04-03T17:20:37.162Z,94.20
2023-04-03T17:23:04.666Z,94.50
2023-04-03T17:25:32.125Z,94.80
2023-04-03T17:27:59.404Z,95.30
2023-04-03T17:30:26.572Z,94.50
2023-04-03T17:32:53.594Z,95.50
2023-04-03T17:35:20.766Z,94.20
2023-04-03T17:37:50.273Z,94.60
2023-04-03T17:40:18.818Z,94.30
2023-04-03T17:42:45.939Z,94.50
2023-04-03T17:45:15.506Z,94.80
2023-04-03T17:47:42.651Z,94.70
2023-04-03T17:50:10.013Z,95.20
2023-04-03T17:52:37.091Z,94.60
2023-04-03T17:55:04.872Z,94.70
2023-04-03T17:57:32.155Z,94.50
2023-04-03T17:59:59.916Z,94.30
2023-04-03T18:02:27.497Z,94.40
2023-04-03T18:04:54.600Z,94.80
2023-04-03T18:07:22.039Z,95.00
2023-04-03T18:09:50.898Z,94.70
2023-04-03T18:12:18.306Z,94.80
2023-04-03T18:14:46.114Z,94.80
2023-04-03T18:17:13.862Z,95.10
2023-04-03T18:19:41.505Z,95.10
2023-04-03T18:22:17.365Z,95.40
2023-04-03T18:24:44.898Z,95.60
2023-04-03T18:27:14.515Z,95.90
2023-04-03T18:29:45.141Z,95.60
2023-04-03T18:32:16.422Z,95.50
2023-04-03T18:34:43.712Z,95.50
2023-04-03T18:37:10.871Z,95.40
2023-04-03T18:39:38.056Z,95.30
2023-04-03T18:42:09.619Z,95.50
2023-04-03T18:44:38.116Z,95.60
2023-04-03T18:47:05.524Z,95.70
2023-04-03T18:49:34.468Z,95.80
2023-04-03T18:52:01.703Z,95.80
2023-04-03T18:54:29.001Z,95.90
2023-04-03T18:56:56.386Z,96.40
2023-04-03T18:59:23.660Z,96.30
2023-04-03T19:01:51.547Z,96.20
2023-04-03T19:04:18.638Z,96.30
2023-04-03T19:06:45.831Z,96.60
2023-04-03T19:09:13.140Z,96.30
2023-04-03T19:11:40.401Z,96.40
2023-04-03T19:14:15.966Z,96.50
2023-04-03T19:16:44.667Z,96.60
2023-04-03T19:19:12.121Z,96.80
2023-04-03T19:21:41.414Z,96.90
2023-04-03T19:24:11.236Z,97.10
2023-04-03T19:26:38.922Z,97.00
2023-04-03T19:29:06.102Z,97.10
2023-04-03T19:31:34.018Z,97.40
2023-04-03T19:34:02.742Z,97.20
2023-04-03T19:36:31.226Z,97.00
2023-04-03T19:38:58.398Z,97.30
2023-04-03T19:41:28.091Z,97.20
2023-04-03T19:43:56.662Z,97.10
2023-04-03T19:46:28.852Z,97.30
2023-04-03T19:48:56.956Z,97.50
2023-04-03T19:51:24.188Z,97.20
2023-04-03T19:53:51.971Z,97.30
2023-04-03T19:56:21.439Z,97.20
2023-04-03T19:58:54.124Z,97.50
2023-04-03T20:01:24.793Z,97.50
2023-04-03T20:03:52.083Z,97.50
2023-04-03T20:06:19.525Z,97.40
2023-04-03T20:08:46.805Z,97.50
2023-04-03T20:11:14.074Z,97.60
2023-04-03T20:13:41.259Z,97.20
2023-04-03T20:16:09.221Z,97.20
2023-04-03T20:18:36.916Z,97.30
2023-04-03T20:21:05.783Z,97.20
2023-04-03T20:23:34.069Z,97.40
2023-04-03T20:26:10.962Z,97.50
2023-04-03T20:28:41.325Z,97.60
2023-04-03T20:31:09.940Z,97.40
2023-04-03T20:33:38.208Z,97.30
2023-04-03T20:36:05.563Z,97.30
2023-04-03T20:38:32.931Z,97.20
2023-04-03T20:41:00.318Z,97.10
2023-04-03T20:43:28.481Z,97.20
2023-04-03T20:45:55.783Z,96.90
2023-04-03T20:48:23.681Z,96.70
2023-04-03T20:50:51.252Z,97.50
2023-04-03T20:53:19.204Z,97.30
2023-04-03T20:56:00.726Z,97.40
2023-04-03T20:58:30.545Z,97.10
2023-04-03T21:00:58.143Z,97.20
2023-04-03T21:03:27.222Z,97.40
2023-04-03T21:06:00.614Z,97.10
2023-04-03T21:09:05.595Z,97.30
2023-04-03T21:12:10.032Z,97.20
2023-04-03T21:15:15.025Z,97.50
2023-04-03T21:18:06.997Z,97.50
2023-04-03T21:20:34.326Z,97.80
2023-04-03T21:23:01.659Z,97.60
2023-04-03T21:25:29.066Z,97.80
2023-04-03T21:27:56.281Z,97.80
2023-04-03T21:30:23.787Z,97.80
2023-04-03T21:32:51.458Z,98.10
2023-04-03T21:35:19.095Z,98.20
2023-04-03T21:37:46.354Z,98.00
2023-04-03T21:40:13.516Z,98.40
2023-04-03T21:42:40.884Z,98.40
2023-04-03T21:45:08.954Z,98.50
2023-04-03T21:47:36.661Z,98.70
2023-04-03T21:50:04.125Z,98.70
2023-04-03T21:52:31.709Z,98.70
2023-04-03T21:54:58.892Z,98.90
2023-04-03T21:57:26.003Z,98.90
2023-04-03T21:59:53.389Z,99.00
2023-04-03T22:02:20.656Z,99.30
2023-04-03T22:04:47.759Z,99.30
2023-04-03T22:07:14.975Z,99.50
2023-04-03T22:09:42.131Z,99.40
2023-04-03T22:12:11.939Z,99.40
2023-04-03T22:14:39.588Z,99.50
2023-04-03T22:17:07.350Z,99.90
2023-04-03T22:19:35.949Z,99.80
2023-04-03T22:22:03.646Z,99.70
2023-04-03T22:24:31.120Z,99.80
2023-04-03T22:26:58.195Z,99.90
2023-04-03T22:29:25.231Z,99.90
2023-04-03T22:31:52.379Z,99.90
2023-04-03T22:34:20.621Z,99.90
2023-04-03T22:36:47.896Z,99.90
2023-04-03T22:39:16.387Z,99.90
2023-04-03T22:41:45.303Z,99.90
2023-04-03T22:44:13.026Z,99.90
2023-04-03T22:46:40.167Z,99.90
2023-04-03T22:49:07.718Z,99.90
2023-04-03T22:51:34.747Z,99.90
2023-04-03T22:54:01.932Z,99.90
2023-04-03T22:56:29.307Z,99.90
2023-04-03T22:58:57.254Z,99.90
2023-04-03T23:01:25.605Z,99.90
2023-04-03T23:03:52.745Z,99.90
2023-04-03T23:06:19.890Z,99.90
2023-04-03T23:08:46.999Z,99.90
2023-04-03T23:11:14.093Z,99.90
2023-04-03T23:13:43.676Z,99.90
2023-04-03T23:16:10.820Z,99.90
2023-04-03T23:18:41.867Z,99.90
2023-04-03T23:21:09.461Z,99.90
2023-04-03T23:23:36.761Z,99.90
2023-04-03T23:26:03.902Z,99.90
2023-04-03T23:28:31.258Z,99.90
2023-04-03T23:31:00.509Z,99.90
2023-04-03T23:33:32.071Z,99.90
2023-04-03T23:36:05.785Z,99.90
2023-04-03T23:38:33.203Z,99.90
2023-04-03T23:41:00.182Z,99.90
2023-04-03T23:43:27.794Z,99.90
2023-04-03T23:45:55.108Z,99.90
2023-04-03T23:48:22.212Z,99.90
2023-04-03T23:50:49.353Z,99.90
2023-04-03T23:53:16.453Z,99.90
2023-04-03T23:55:43.526Z,99.90
2023-04-03T23:58:11.086Z,99.90
